createdAt,value
2022-10-06T00:00:33.687Z,17.60
2022-10-06T00:03:02.323Z,17.60
2022-10-06T00:05:31.365Z,17.60
2022-10-06T00:07:59.812Z,17.60
2022-10-06T00:10:29.457Z,17.60
2022-10-06T00:12:57.531Z,17.70
2022-10-06T00:15:29.818Z,17.60
2022-10-06T00:17:57.936Z,17.70
2022-10-06T00:20:26.641Z,17.70
2022-10-06T00:22:54.862Z,17.70
2022-10-06T00:25:23.306Z,17.70
2022-10-06T00:27:52.706Z,17.70
2022-10-06T00:30:24.760Z,17.70
2022-10-06T00:32:54.711Z,17.70
2022-10-06T00:35:22.945Z,17.70
2022-10-06T00:37:50.540Z,17.70
2022-10-06T00:40:18.799Z,17.80
2022-10-06T00:43:06.526Z,17.70
2022-10-06T00:45:38.193Z,17.80
2022-10-06T00:48:14.554Z,17.80
2022-10-06T00:50:42.964Z,17.80
2022-10-06T00:53:12.577Z,17.80
2022-10-06T00:55:40.469Z,17.80
2022-10-06T00:58:09.882Z,17.80
2022-10-06T01:00:42.091Z,17.70
2022-10-06T01:03:11.989Z,17.70
2022-10-06T01:05:42.004Z,17.70
2022-10-06T01:08:11.139Z,17.70
2022-10-06T01:10:38.733Z,17.70
2022-10-06T01:13:11.280Z,17.70
2022-10-06T01:15:44.374Z,17.70
2022-10-06T01:18:15.128Z,17.70
2022-10-06T01:20:45.737Z,17.70
2022-10-06T01:23:13.461Z,17.70
2022-10-06T01:25:41.463Z,17.70
2022-10-06T01:28:09.948Z,17.70
2022-10-06T01:30:51.094Z,17.70
2022-10-06T01:33:22.219Z,17.70
2022-10-06T01:35:51.959Z,17.70
2022-10-06T01:38:20.413Z,17.70
2022-10-06T01:40:51.827Z,17.70
2022-10-06T01:43:23.440Z,17.70
2022-10-06T01:46:03.938Z,17.70
2022-10-06T01:48:36.163Z,17.50
2022-10-06T01:51:05.177Z,17.30
2022-10-06T01:53:32.738Z,17.20
2022-10-06T01:56:00.528Z,17.00
2022-10-06T01:58:30.455Z,16.90
2022-10-06T02:00:58.470Z,16.70
2022-10-06T02:03:26.050Z,16.70
2022-10-06T02:05:56.164Z,16.60
2022-10-06T02:08:23.721Z,16.50
2022-10-06T02:10:55.916Z,15.90
2022-10-06T02:13:26.119Z,15.70
2022-10-06T02:15:57.802Z,15.30
2022-10-06T02:18:26.352Z,15.00
2022-10-06T02:20:56.438Z,14.90
2022-10-06T02:23:24.008Z,14.70
2022-10-06T02:25:58.010Z,14.60
2022-10-06T02:28:27.288Z,14.50
2022-10-06T02:30:59.793Z,14.50
2022-10-06T02:33:27.701Z,14.50
2022-10-06T02:35:56.497Z,14.40
2022-10-06T02:38:29.165Z,14.40
2022-10-06T02:40:58.426Z,14.40
2022-10-06T02:43:31.521Z,14.30
2022-10-06T02:46:02.332Z,14.30
2022-10-06T02:48:31.053Z,14.20
2022-10-06T02:51:08.886Z,14.20
2022-10-06T02:53:38.002Z,14.20
2022-10-06T02:56:07.813Z,14.10
2022-10-06T02:58:35.714Z,14.00
2022-10-06T03:01:08.964Z,14.10
2022-10-06T03:03:37.662Z,14.10
2022-10-06T03:06:06.856Z,14.00
2022-10-06T03:08:35.049Z,14.00
2022-10-06T03:11:04.078Z,14.00
2022-10-06T03:14:04.120Z,13.90
2022-10-06T03:16:38.702Z,14.00
2022-10-06T03:19:12.892Z,13.90
2022-10-06T03:21:43.923Z,13.80
2022-10-06T03:24:13.294Z,13.80
2022-10-06T03:26:44.544Z,13.80
2022-10-06T03:29:14.567Z,13.90
2022-10-06T03:31:44.877Z,13.90
2022-10-06T03:34:20.282Z,13.90
2022-10-06T03:36:48.520Z,13.90
2022-10-06T03:39:19.698Z,13.90
2022-10-06T03:41:47.517Z,14.00
2022-10-06T03:44:15.515Z,13.90
2022-10-06T03:46:45.714Z,13.90
2022-10-06T03:49:13.563Z,13.90
2022-10-06T03:51:43.050Z,13.90
2022-10-06T03:54:20.599Z,13.90
2022-10-06T03:56:50.791Z,14.00
2022-10-06T03:59:21.971Z,14.00
2022-10-06T04:01:53.075Z,14.00
2022-10-06T04:05:06.820Z,14.00
2022-10-06T04:07:34.929Z,14.00
2022-10-06T04:10:02.779Z,13.90
2022-10-06T04:12:30.733Z,13.90
2022-10-06T04:15:00.494Z,13.90
2022-10-06T04:17:28.901Z,13.90
2022-10-06T04:19:56.788Z,13.80
2022-10-06T04:22:24.970Z,13.70
2022-10-06T04:24:52.806Z,13.70
2022-10-06T04:27:29.442Z,13.70
2022-10-06T04:30:16.951Z,13.60
2022-10-06T04:32:46.372Z,13.50
2022-10-06T04:35:14.205Z,13.40
2022-10-06T04:37:42.260Z,13.40
2022-10-06T04:40:10.505Z,13.30
2022-10-06T04:42:38.456Z,13.30
2022-10-06T04:45:10.550Z,13.20
2022-10-06T04:47:40.669Z,13.10
2022-10-06T04:50:10.561Z,13.10
2022-10-06T04:52:43.121Z,13.00
2022-10-06T04:55:11.136Z,13.00
2022-10-06T04:57:39.535Z,13.00
2022-10-06T05:00:25.777Z,12.90
2022-10-06T05:02:56.352Z,12.90
2022-10-06T05:05:32.860Z,12.80
2022-10-06T05:08:00.614Z,12.90
2022-10-06T05:10:33.304Z,12.80
2022-10-06T05:13:08.146Z,12.70
2022-10-06T05:15:41.823Z,12.80
2022-10-06T05:18:09.368Z,12.70
2022-10-06T05:20:37.337Z,12.70
2022-10-06T05:23:06.556Z,12.60
2022-10-06T05:25:37.697Z,12.60
2022-10-06T05:28:05.420Z,12.60
2022-10-06T05:30:32.970Z,12.50
2022-10-06T05:33:00.559Z,12.50
2022-10-06T05:35:28.527Z,12.40
2022-10-06T05:37:56.388Z,12.40
2022-10-06T05:40:25.066Z,12.50
2022-10-06T05:42:55.204Z,12.50
2022-10-06T05:45:22.975Z,12.50
2022-10-06T05:47:50.487Z,12.60
2022-10-06T05:50:20.619Z,12.50
2022-10-06T05:52:48.932Z,12.60
2022-10-06T05:55:16.762Z,12.60
2022-10-06T05:57:44.355Z,12.70
2022-10-06T06:00:16.106Z,12.80
2022-10-06T06:02:46.388Z,12.90
2022-10-06T06:05:14.585Z,12.90
2022-10-06T06:07:42.068Z,13.00
2022-10-06T06:10:10.030Z,13.30
2022-10-06T06:12:37.443Z,13.60
2022-10-06T06:15:36.369Z,13.80
2022-10-06T06:18:06.074Z,14.00
2022-10-06T06:20:34.478Z,14.00
2022-10-06T06:23:02.731Z,14.60
2022-10-06T06:25:31.158Z,15.30
2022-10-06T06:27:58.953Z,16.30
2022-10-06T06:30:26.839Z,16.60
2022-10-06T06:33:00.302Z,17.00
2022-10-06T06:35:28.598Z,17.20
2022-10-06T06:37:56.573Z,17.80
2022-10-06T06:40:24.181Z,18.20
2022-10-06T06:42:53.962Z,18.60
2022-10-06T06:45:39.528Z,18.80
2022-10-06T06:48:37.871Z,19.10
2022-10-06T06:51:05.904Z,18.50
2022-10-06T06:53:33.817Z,18.70
2022-10-06T06:56:04.177Z,18.70
2022-10-06T06:58:33.906Z,18.70
2022-10-06T07:01:13.877Z,19.20
2022-10-06T07:03:57.230Z,18.90
2022-10-06T07:06:29.195Z,19.80
2022-10-06T07:08:59.364Z,20.30
2022-10-06T07:11:31.613Z,19.90
2022-10-06T07:14:04.295Z,20.40
2022-10-06T07:16:51.452Z,20.10
2022-10-06T07:19:39.408Z,20.70
2022-10-06T07:22:26.643Z,20.70
2022-10-06T07:25:11.540Z,20.70
2022-10-06T07:27:53.014Z,20.80
2022-10-06T07:30:27.877Z,21.70
2022-10-06T07:33:05.094Z,21.60
2022-10-06T07:35:33.604Z,22.20
2022-10-06T07:38:02.396Z,22.10
2022-10-06T07:40:31.290Z,21.00
2022-10-06T07:43:00.084Z,21.60
2022-10-06T07:45:38.563Z,21.90
2022-10-06T07:48:10.598Z,21.80
2022-10-06T07:50:39.653Z,21.00
2022-10-06T07:53:08.873Z,21.20
2022-10-06T07:55:42.044Z,21.20
2022-10-06T07:58:26.198Z,21.60
2022-10-06T08:00:53.777Z,22.10
2022-10-06T08:03:22.209Z,21.00
2022-10-06T08:05:56.873Z,20.50
2022-10-06T08:08:33.182Z,20.60
2022-10-06T08:11:01.884Z,21.00
2022-10-06T08:13:33.820Z,21.10
2022-10-06T08:16:11.716Z,20.10
2022-10-06T08:18:46.583Z,19.30
2022-10-06T08:21:15.794Z,20.00
2022-10-06T08:23:44.727Z,20.40
2022-10-06T08:26:13.105Z,20.70
2022-10-06T08:28:43.665Z,20.60
2022-10-06T08:31:11.956Z,20.90
2022-10-06T08:33:40.068Z,20.60
2022-10-06T08:36:21.058Z,20.40
2022-10-06T08:38:50.921Z,20.80
2022-10-06T08:41:18.565Z,21.60
2022-10-06T08:43:53.780Z,21.20
2022-10-06T08:46:24.672Z,20.60
2022-10-06T08:48:52.530Z,21.70
2022-10-06T08:51:48.813Z,22.20
2022-10-06T08:54:19.807Z,23.10
2022-10-06T08:56:54.509Z,23.20
2022-10-06T08:59:22.684Z,22.20
2022-10-06T09:01:52.686Z,22.50
2022-10-06T09:04:30.549Z,22.60
2022-10-06T09:07:11.335Z,23.40
2022-10-06T09:09:48.949Z,22.80
2022-10-06T09:12:35.890Z,22.70
2022-10-06T09:15:10.759Z,22.70
2022-10-06T09:17:46.751Z,23.30
2022-10-06T09:20:34.373Z,22.50
2022-10-06T09:23:04.647Z,23.10
2022-10-06T09:25:33.044Z,23.90
2022-10-06T09:28:01.806Z,23.60
2022-10-06T09:30:29.914Z,24.00
2022-10-06T09:33:02.915Z,23.70
2022-10-06T09:35:56.958Z,24.40
2022-10-06T09:38:24.504Z,24.00
2022-10-06T09:40:53.753Z,24.40
2022-10-06T09:43:28.665Z,24.70
2022-10-06T09:46:22.898Z,24.70
2022-10-06T09:49:05.537Z,24.90
2022-10-06T09:51:36.485Z,23.20
2022-10-06T09:54:14.298Z,22.10
2022-10-06T09:56:44.895Z,21.30
2022-10-06T09:59:20.895Z,21.30
2022-10-06T10:01:53.595Z,21.20
2022-10-06T10:04:23.762Z,21.00
2022-10-06T10:07:13.934Z,21.10
2022-10-06T10:09:42.253Z,21.30
2022-10-06T10:12:25.293Z,22.70
2022-10-06T10:14:53.854Z,22.80
2022-10-06T10:17:25.803Z,23.90
2022-10-06T10:19:55.500Z,24.90
2022-10-06T10:22:25.245Z,24.60
2022-10-06T10:24:53.379Z,23.80
2022-10-06T10:27:23.115Z,22.00
2022-10-06T10:30:23.861Z,22.20
2022-10-06T10:33:05.133Z,22.10
2022-10-06T10:35:37.568Z,22.10
2022-10-06T10:38:14.432Z,22.40
2022-10-06T10:40:55.208Z,22.50
2022-10-06T10:43:25.936Z,21.80
2022-10-06T10:46:12.587Z,22.40
2022-10-06T10:48:40.484Z,23.20
2022-10-06T10:51:17.350Z,23.90
2022-10-06T10:53:44.874Z,21.70
2022-10-06T10:56:13.804Z,22.00
2022-10-06T10:58:43.715Z,22.00
2022-10-06T11:01:34.138Z,21.80
2022-10-06T11:04:10.349Z,22.00
2022-10-06T11:06:38.075Z,21.10
2022-10-06T11:09:09.029Z,21.30
2022-10-06T11:11:51.263Z,20.80
2022-10-06T11:14:44.559Z,20.70
2022-10-06T11:17:19.290Z,20.70
2022-10-06T11:19:57.795Z,21.80
2022-10-06T11:22:36.543Z,22.50
2022-10-06T11:25:23.373Z,22.90
2022-10-06T11:28:03.486Z,22.60
2022-10-06T11:30:33.364Z,22.00
2022-10-06T11:33:15.225Z,22.20
2022-10-06T11:35:44.495Z,22.90
2022-10-06T11:38:11.877Z,21.20
2022-10-06T11:41:10.444Z,21.40
2022-10-06T11:43:42.555Z,20.90
2022-10-06T11:46:14.209Z,21.80
2022-10-06T11:48:42.797Z,21.80
2022-10-06T11:51:16.350Z,21.80
2022-10-06T11:53:44.877Z,21.60
2022-10-06T11:56:15.541Z,22.30
2022-10-06T11:59:15.766Z,22.50
2022-10-06T12:01:47.939Z,22.10
2022-10-06T12:04:24.564Z,22.90
2022-10-06T12:06:59.102Z,22.70
2022-10-06T12:09:33.537Z,23.20
2022-10-06T12:12:19.397Z,23.70
2022-10-06T12:18:04.755Z,23.20
2022-10-06T12:20:42.447Z,23.20
2022-10-06T12:23:10.109Z,22.80
2022-10-06T12:25:50.229Z,22.90
2022-10-06T12:28:36.399Z,22.20
2022-10-06T12:31:12.492Z,22.10
2022-10-06T12:33:45.051Z,22.70
2022-10-06T12:36:30.116Z,23.10
2022-10-06T12:39:01.798Z,23.60
2022-10-06T12:42:05.568Z,23.70
2022-10-06T12:44:40.560Z,24.00
2022-10-06T12:47:28.957Z,24.00
2022-10-06T12:50:17.763Z,24.40
2022-10-06T12:52:48.522Z,24.30
2022-10-06T12:55:35.136Z,23.60
2022-10-06T12:58:02.784Z,23.60
2022-10-06T13:00:30.496Z,23.90
2022-10-06T13:02:58.511Z,23.60
2022-10-06T13:05:28.163Z,23.70
2022-10-06T13:07:57.968Z,24.40
2022-10-06T13:10:26.486Z,23.90
2022-10-06T13:12:57.880Z,24.20
2022-10-06T13:15:29.598Z,24.30
2022-10-06T13:18:08.505Z,24.00
2022-10-06T13:20:40.665Z,23.00
2022-10-06T13:23:24.369Z,23.10
2022-10-06T13:25:55.581Z,22.70
2022-10-06T13:28:28.798Z,22.70
2022-10-06T13:30:56.784Z,22.90
2022-10-06T13:33:26.454Z,22.20
2022-10-06T13:35:54.327Z,21.70
2022-10-06T13:38:21.833Z,22.00
2022-10-06T13:41:02.783Z,21.40
2022-10-06T13:43:30.409Z,21.20
2022-10-06T13:45:58.643Z,21.50
2022-10-06T13:48:26.781Z,21.50
2022-10-06T13:50:54.427Z,21.70
2022-10-06T13:53:27.290Z,21.50
2022-10-06T13:55:55.809Z,21.40
2022-10-06T13:58:28.084Z,21.60
2022-10-06T14:00:57.779Z,21.80
2022-10-06T14:03:25.545Z,21.60
2022-10-06T14:06:05.464Z,21.40
2022-10-06T14:08:33.967Z,21.50
2022-10-06T14:11:08.471Z,22.00
2022-10-06T14:13:41.375Z,21.60
2022-10-06T14:16:10.856Z,21.60
2022-10-06T14:18:44.697Z,21.60
2022-10-06T14:21:31.294Z,22.00
2022-10-06T14:23:59.886Z,22.70
2022-10-06T14:26:31.681Z,23.50
2022-10-06T14:29:00.780Z,23.70
2022-10-06T14:31:34.171Z,23.60
2022-10-06T14:34:02.270Z,23.70
2022-10-06T14:36:32.165Z,24.00
2022-10-06T14:39:00.052Z,23.70
2022-10-06T14:41:28.569Z,23.20
2022-10-06T14:43:57.268Z,23.00
2022-10-06T14:46:25.512Z,22.60
2022-10-06T14:48:53.307Z,22.40
2022-10-06T14:51:22.438Z,22.00
2022-10-06T14:53:58.926Z,22.10
2022-10-06T14:56:29.243Z,21.90
2022-10-06T14:59:00.215Z,21.70
2022-10-06T15:01:29.314Z,21.10
2022-10-06T15:04:01.400Z,21.40
2022-10-06T15:06:48.606Z,21.60
2022-10-06T15:09:16.300Z,21.50
2022-10-06T15:11:49.423Z,21.30
2022-10-06T15:14:16.995Z,21.00
2022-10-06T15:16:44.917Z,21.00
2022-10-06T15:19:13.521Z,20.60
2022-10-06T15:21:46.654Z,20.60
2022-10-06T15:24:16.260Z,20.40
2022-10-06T15:27:03.037Z,20.80
2022-10-06T15:29:31.685Z,20.80
2022-10-06T15:32:00.322Z,20.90
2022-10-06T15:37:48.805Z,20.50
2022-10-06T15:40:18.303Z,20.00
2022-10-06T15:42:49.432Z,19.80
2022-10-06T15:45:22.226Z,19.30
2022-10-06T15:47:52.863Z,19.00
2022-10-06T15:50:20.595Z,18.90
2022-10-06T15:52:48.130Z,18.70
2022-10-06T15:55:15.764Z,18.50
2022-10-06T15:57:43.693Z,18.50
2022-10-06T16:00:11.835Z,18.60
2022-10-06T16:02:43.007Z,18.70
2022-10-06T16:05:10.616Z,18.80
2022-10-06T16:07:38.113Z,18.70
2022-10-06T16:10:06.169Z,18.30
2022-10-06T16:12:35.936Z,18.10
2022-10-06T16:15:04.253Z,17.50
2022-10-06T16:17:32.807Z,17.40
2022-10-06T16:20:01.075Z,17.20
2022-10-06T16:22:28.676Z,17.30
2022-10-06T16:24:59.511Z,17.20
2022-10-06T16:27:32.629Z,17.10
2022-10-06T16:30:01.059Z,17.10
2022-10-06T16:32:28.808Z,16.80
2022-10-06T16:34:56.585Z,16.60
2022-10-06T16:37:24.406Z,16.60
2022-10-06T16:39:52.892Z,16.60
2022-10-06T16:42:20.789Z,16.60
2022-10-06T16:44:48.286Z,16.60
2022-10-06T16:47:15.852Z,16.50
2022-10-06T16:49:43.643Z,16.50
2022-10-06T16:52:11.248Z,16.40
2022-10-06T16:54:38.790Z,16.20
2022-10-06T16:57:07.440Z,15.60
2022-10-06T16:59:35.135Z,15.60
2022-10-06T17:02:02.588Z,15.60
2022-10-06T17:04:31.598Z,15.40
2022-10-06T17:07:00.322Z,15.30
2022-10-06T17:09:28.731Z,14.80
2022-10-06T17:11:58.337Z,14.70
2022-10-06T17:14:28.321Z,14.50
2022-10-06T17:16:56.272Z,14.40
2022-10-06T17:19:24.920Z,14.40
2022-10-06T17:21:58.571Z,14.10
2022-10-06T17:24:28.635Z,14.00
2022-10-06T17:26:57.726Z,13.90
2022-10-06T17:29:26.073Z,13.90
2022-10-06T17:31:59.270Z,13.80
2022-10-06T17:34:32.215Z,13.70
2022-10-06T17:37:01.712Z,13.50
2022-10-06T17:39:29.209Z,13.50
2022-10-06T17:41:56.749Z,13.60
2022-10-06T17:44:26.962Z,13.60
2022-10-06T17:46:56.295Z,13.50
2022-10-06T17:49:26.639Z,13.10
2022-10-06T17:51:54.811Z,13.00
2022-10-06T17:54:23.822Z,13.00
2022-10-06T17:56:53.182Z,13.20
2022-10-06T17:59:24.638Z,13.20
2022-10-06T18:01:56.348Z,13.00
2022-10-06T18:04:25.303Z,13.00
2022-10-06T18:06:53.991Z,12.80
2022-10-06T18:09:22.194Z,12.90
2022-10-06T18:11:56.131Z,12.90
2022-10-06T18:14:26.133Z,12.80
2022-10-06T18:16:58.556Z,12.70
2022-10-06T18:19:30.719Z,12.60
2022-10-06T18:22:00.280Z,12.50
2022-10-06T18:24:31.886Z,12.60
2022-10-06T18:27:06.703Z,12.40
2022-10-06T18:29:41.154Z,12.30
2022-10-06T18:33:16.510Z,12.10
2022-10-06T18:36:11.002Z,12.00
2022-10-06T18:37:47.105Z,11.90
2022-10-06T18:40:15.731Z,11.60
2022-10-06T18:42:43.484Z,11.50
2022-10-06T18:45:34.226Z,11.40
2022-10-06T18:48:21.737Z,11.20
2022-10-06T18:50:59.719Z,11.10
2022-10-06T18:53:27.809Z,11.00
2022-10-06T18:55:55.314Z,11.00
2022-10-06T18:58:23.524Z,11.10
2022-10-06T19:00:56.082Z,11.30
2022-10-06T19:03:26.860Z,11.10
2022-10-06T19:05:54.618Z,11.20
2022-10-06T19:08:22.008Z,11.10
2022-10-06T19:11:08.662Z,11.00
2022-10-06T19:13:37.265Z,10.90
2022-10-06T19:16:04.873Z,10.90
2022-10-06T19:18:39.888Z,10.70
2022-10-06T19:21:09.884Z,10.50
2022-10-06T19:23:40.086Z,10.40
2022-10-06T19:26:08.767Z,10.50
2022-10-06T19:28:37.638Z,10.50
2022-10-06T19:31:19.973Z,10.50
2022-10-06T19:33:47.789Z,10.40
2022-10-06T19:36:17.013Z,10.30
2022-10-06T19:38:45.645Z,10.30
2022-10-06T19:41:31.758Z,10.20
2022-10-06T19:44:05.499Z,10.10
2022-10-06T19:46:43.978Z,10.20
2022-10-06T19:49:13.913Z,10.20
2022-10-06T19:51:43.253Z,10.20
2022-10-06T19:54:12.748Z,10.40
2022-10-06T19:56:42.153Z,10.30
2022-10-06T19:59:14.235Z,10.10
2022-10-06T20:01:42.330Z,9.80
2022-10-06T20:04:10.568Z,9.80
2022-10-06T20:06:41.587Z,9.70
2022-10-06T20:09:10.838Z,9.50
2022-10-06T20:11:39.662Z,9.50
2022-10-06T20:14:10.614Z,9.60
2022-10-06T20:16:41.140Z,9.70
2022-10-06T20:19:10.394Z,9.70
2022-10-06T20:21:39.938Z,9.60
2022-10-06T20:24:11.477Z,9.50
2022-10-06T20:26:44.761Z,9.40
2022-10-06T20:29:14.241Z,9.50
2022-10-06T20:31:44.328Z,9.50
2022-10-06T20:34:13.500Z,9.50
2022-10-06T20:36:41.970Z,9.60
2022-10-06T20:39:38.418Z,9.60
2022-10-06T20:42:09.379Z,9.60
2022-10-06T20:44:42.625Z,9.60
2022-10-06T20:47:11.311Z,9.60
2022-10-06T20:49:39.061Z,9.40
2022-10-06T20:52:07.447Z,9.30
2022-10-06T20:54:35.493Z,9.20
2022-10-06T20:57:04.365Z,9.10
2022-10-06T20:59:41.132Z,9.10
2022-10-06T21:02:10.435Z,9.20
2022-10-06T21:04:40.518Z,9.20
2022-10-06T21:07:08.221Z,9.20
2022-10-06T21:09:40.058Z,9.20
2022-10-06T21:12:07.824Z,9.20
2022-10-06T21:14:36.307Z,9.20
2022-10-06T21:17:07.608Z,9.20
2022-10-06T21:19:37.725Z,9.10
2022-10-06T21:22:05.687Z,9.00
2022-10-06T21:24:34.716Z,9.10
2022-10-06T21:27:03.154Z,9.10
2022-10-06T21:29:32.247Z,9.00
2022-10-06T21:32:03.717Z,9.00
2022-10-06T21:34:35.642Z,9.00
2022-10-06T21:37:04.934Z,9.00
2022-10-06T21:39:32.618Z,9.10
2022-10-06T21:42:00.694Z,9.00
2022-10-06T21:44:29.770Z,9.10
2022-10-06T21:46:57.467Z,9.10
2022-10-06T21:49:25.482Z,9.10
2022-10-06T21:51:53.886Z,8.90
2022-10-06T21:54:22.174Z,8.90
2022-10-06T21:56:49.988Z,8.90
2022-10-06T21:59:17.859Z,9.00
2022-10-06T22:01:46.200Z,9.00
2022-10-06T22:04:14.560Z,9.00
2022-10-06T22:06:43.064Z,9.00
2022-10-06T22:09:15.761Z,8.90
2022-10-06T22:11:43.307Z,8.90
2022-10-06T22:14:13.105Z,8.80
2022-10-06T22:16:41.331Z,8.90
2022-10-06T22:19:10.470Z,8.90
2022-10-06T22:21:39.262Z,8.60
2022-10-06T22:24:08.316Z,8.50
2022-10-06T22:26:37.570Z,8.60
2022-10-06T22:29:06.494Z,8.60
2022-10-06T22:31:34.459Z,8.70
2022-10-06T22:34:04.844Z,8.70
2022-10-06T22:36:34.346Z,8.70
2022-10-06T22:39:02.282Z,8.70
2022-10-06T22:41:30.476Z,8.60
2022-10-06T22:43:58.722Z,8.50
2022-10-06T22:46:28.136Z,8.40
2022-10-06T22:48:56.175Z,8.50
2022-10-06T22:51:23.978Z,8.40
2022-10-06T22:53:57.314Z,8.30
2022-10-06T22:56:26.628Z,8.30
2022-10-06T22:58:54.473Z,8.20
2022-10-06T23:01:22.249Z,8.20
2022-10-06T23:03:50.776Z,8.10
2022-10-06T23:06:18.640Z,8.10
2022-10-06T23:08:46.675Z,8.20
2022-10-06T23:11:18.269Z,8.20
2022-10-06T23:13:46.698Z,8.20
2022-10-06T23:16:21.354Z,8.30
2022-10-06T23:18:49.235Z,8.30
2022-10-06T23:21:21.995Z,8.30
2022-10-06T23:23:53.113Z,8.40
2022-10-06T23:26:22.078Z,8.40
2022-10-06T23:28:54.174Z,8.40
2022-10-06T23:31:22.174Z,8.30
2022-10-06T23:33:49.787Z,8.30
2022-10-06T23:36:23.795Z,8.20
2022-10-06T23:38:51.361Z,8.10
2022-10-06T23:41:23.207Z,8.00
2022-10-06T23:43:50.887Z,7.90
2022-10-06T23:46:51.782Z,7.90
2022-10-06T23:49:19.667Z,8.00
2022-10-06T23:51:48.659Z,7.90
2022-10-06T23:54:22.917Z,7.90
2022-10-06T23:56:53.099Z,7.90
2022-10-06T23:59:21.514Z,7.90
